sensor_id;sensor_type;location;lat;lon;timestamp;P1;durP1;ratioP1;P2;durP2;ratioP2
20689;SDS011;10504;48.762;8.996;2022-09-12T00:01:04;4.17;;;1.90;;
20689;SDS011;10504;48.762;8.996;2022-09-12T00:03:32;3.70;;;1.87;;
20689;SDS011;10504;48.762;8.996;2022-09-12T00:05:58;4.47;;;1.83;;
20689;SDS011;10504;48.762;8.996;2022-09-12T00:08:24;4.80;;;1.80;;
20689;SDS011;10504;48.762;8.996;2022-09-12T00:10:49;7.70;;;1.80;;
20689;SDS011;10504;48.762;8.996;2022-09-12T00:13:15;5.10;;;2.03;;
20689;SDS011;10504;48.762;8.996;2022-09-12T00:15:41;3.80;;;1.80;;
20689;SDS011;10504;48.762;8.996;2022-09-12T00:18:09;4.97;;;2.03;;
20689;SDS011;10504;48.762;8.996;2022-09-12T00:20:42;5.43;;;2.13;;
20689;SDS011;10504;48.762;8.996;2022-09-12T00:23:09;6.83;;;2.27;;
20689;SDS011;10504;48.762;8.996;2022-09-12T00:25:46;5.27;;;2.07;;
20689;SDS011;10504;48.762;8.996;2022-09-12T00:28:13;5.27;;;2.03;;
20689;SDS011;10504;48.762;8.996;2022-09-12T00:30:41;4.23;;;1.80;;
20689;SDS011;10504;48.762;8.996;2022-09-12T00:33:07;4.93;;;1.70;;
20689;SDS011;10504;48.762;8.996;2022-09-12T00:35:33;5.17;;;1.97;;
20689;SDS011;10504;48.762;8.996;2022-09-12T00:38:04;3.90;;;1.73;;
20689;SDS011;10504;48.762;8.996;2022-09-12T00:40:30;6.07;;;2.97;;
20689;SDS011;10504;48.762;8.996;2022-09-12T00:42:55;4.27;;;2.07;;
20689;SDS011;10504;48.762;8.996;2022-09-12T00:45:26;4.07;;;1.67;;
20689;SDS011;10504;48.762;8.996;2022-09-12T00:47:53;5.13;;;1.93;;
20689;SDS011;10504;48.762;8.996;2022-09-12T00:50:20;4.27;;;1.83;;
20689;SDS011;10504;48.762;8.996;2022-09-12T00:52:48;4.10;;;1.60;;
20689;SDS011;10504;48.762;8.996;2022-09-12T00:55:16;3.57;;;1.33;;
20689;SDS011;10504;48.762;8.996;2022-09-12T01:00:19;3.30;;;1.73;;
20689;SDS011;10504;48.762;8.996;2022-09-12T01:02:50;4.83;;;2.03;;
20689;SDS011;10504;48.762;8.996;2022-09-12T01:05:22;4.10;;;1.73;;
20689;SDS011;10504;48.762;8.996;2022-09-12T01:07:49;4.07;;;1.67;;
20689;SDS011;10504;48.762;8.996;2022-09-12T01:10:16;6.40;;;2.00;;
20689;SDS011;10504;48.762;8.996;2022-09-12T01:12:43;6.30;;;2.43;;
20689;SDS011;10504;48.762;8.996;2022-09-12T01:15:10;4.87;;;2.20;;
20689;SDS011;10504;48.762;8.996;2022-09-12T01:17:47;6.87;;;1.77;;
20689;SDS011;10504;48.762;8.996;2022-09-12T01:20:20;5.07;;;1.77;;
20689;SDS011;10504;48.762;8.996;2022-09-12T01:31:33;7.07;;;2.03;;
20689;SDS011;10504;48.762;8.996;2022-09-12T01:37:02;5.17;;;1.90;;
20689;SDS011;10504;48.762;8.996;2022-09-12T01:42:26;4.13;;;1.90;;
20689;SDS011;10504;48.762;8.996;2022-09-12T01:44:56;4.67;;;1.57;;
20689;SDS011;10504;48.762;8.996;2022-09-12T01:47:41;4.27;;;1.97;;
20689;SDS011;10504;48.762;8.996;2022-09-12T01:50:21;5.77;;;1.93;;
20689;SDS011;10504;48.762;8.996;2022-09-12T01:52:52;4.60;;;1.90;;
20689;SDS011;10504;48.762;8.996;2022-09-12T01:55:35;5.20;;;1.30;;
20689;SDS011;10504;48.762;8.996;2022-09-12T01:58:14;6.37;;;2.20;;
20689;SDS011;10504;48.762;8.996;2022-09-12T02:01:05;4.97;;;2.10;;
20689;SDS011;10504;48.762;8.996;2022-09-12T02:03:49;7.13;;;2.47;;
20689;SDS011;10504;48.762;8.996;2022-09-12T02:09:13;6.93;;;2.50;;
20689;SDS011;10504;48.762;8.996;2022-09-12T02:12:00;4.67;;;2.00;;
20689;SDS011;10504;48.762;8.996;2022-09-12T02:14:30;6.30;;;2.60;;
20689;SDS011;10504;48.762;8.996;2022-09-12T02:17:05;5.77;;;2.20;;
20689;SDS011;10504;48.762;8.996;2022-09-12T02:19:39;7.53;;;2.90;;
20689;SDS011;10504;48.762;8.996;2022-09-12T02:22:08;5.97;;;2.37;;
20689;SDS011;10504;48.762;8.996;2022-09-12T02:24:38;6.87;;;2.20;;
20689;SDS011;10504;48.762;8.996;2022-09-12T02:27:14;6.30;;;3.00;;
20689;SDS011;10504;48.762;8.996;2022-09-12T02:29:53;6.97;;;2.47;;
20689;SDS011;10504;48.762;8.996;2022-09-12T02:35:00;5.57;;;1.80;;
20689;SDS011;10504;48.762;8.996;2022-09-12T02:40:04;6.17;;;2.30;;
20689;SDS011;10504;48.762;8.996;2022-09-12T02:42:32;6.03;;;2.03;;
20689;SDS011;10504;48.762;8.996;2022-09-12T02:44:59;5.33;;;2.07;;
20689;SDS011;10504;48.762;8.996;2022-09-12T02:47:36;7.73;;;2.90;;
20689;SDS011;10504;48.762;8.996;2022-09-12T02:50:13;5.23;;;2.37;;
20689;SDS011;10504;48.762;8.996;2022-09-12T02:52:39;5.67;;;2.30;;
20689;SDS011;10504;48.762;8.996;2022-09-12T02:55:06;5.97;;;2.23;;
20689;SDS011;10504;48.762;8.996;2022-09-12T02:57:35;5.70;;;2.27;;
20689;SDS011;10504;48.762;8.996;2022-09-12T03:00:01;4.87;;;2.30;;
20689;SDS011;10504;48.762;8.996;2022-09-12T03:02:44;6.50;;;2.07;;
20689;SDS011;10504;48.762;8.996;2022-09-12T03:06:15;4.63;;;1.87;;
20689;SDS011;10504;48.762;8.996;2022-09-12T03:22:32;3.70;;;2.03;;
20689;SDS011;10504;48.762;8.996;2022-09-12T03:28:00;7.90;;;2.87;;
20689;SDS011;10504;48.762;8.996;2022-09-12T03:30:39;4.90;;;2.00;;
20689;SDS011;10504;48.762;8.996;2022-09-12T03:33:09;5.60;;;2.10;;
20689;SDS011;10504;48.762;8.996;2022-09-12T03:35:36;3.67;;;1.73;;
20689;SDS011;10504;48.762;8.996;2022-09-12T03:38:02;5.43;;;2.33;;
20689;SDS011;10504;48.762;8.996;2022-09-12T03:40:29;7.13;;;2.87;;
20689;SDS011;10504;48.762;8.996;2022-09-12T03:42:54;6.20;;;2.10;;
20689;SDS011;10504;48.762;8.996;2022-09-12T03:45:20;5.70;;;2.67;;
20689;SDS011;10504;48.762;8.996;2022-09-12T03:47:46;6.87;;;2.83;;
20689;SDS011;10504;48.762;8.996;2022-09-12T03:50:11;5.13;;;2.70;;
20689;SDS011;10504;48.762;8.996;2022-09-12T03:52:37;5.63;;;2.20;;
20689;SDS011;10504;48.762;8.996;2022-09-12T03:55:03;5.43;;;2.43;;
20689;SDS011;10504;48.762;8.996;2022-09-12T03:57:29;7.23;;;3.17;;
20689;SDS011;10504;48.762;8.996;2022-09-12T03:59:54;7.80;;;2.77;;
20689;SDS011;10504;48.762;8.996;2022-09-12T04:02:20;8.30;;;2.70;;
20689;SDS011;10504;48.762;8.996;2022-09-12T04:04:46;4.47;;;1.90;;
20689;SDS011;10504;48.762;8.996;2022-09-12T04:07:13;4.57;;;2.13;;
20689;SDS011;10504;48.762;8.996;2022-09-12T04:09:39;4.57;;;1.90;;
20689;SDS011;10504;48.762;8.996;2022-09-12T04:12:05;7.37;;;2.23;;
20689;SDS011;10504;48.762;8.996;2022-09-12T04:14:31;8.00;;;2.80;;
20689;SDS011;10504;48.762;8.996;2022-09-12T04:16:57;4.60;;;2.17;;
20689;SDS011;10504;48.762;8.996;2022-09-12T04:19:24;6.10;;;2.53;;
20689;SDS011;10504;48.762;8.996;2022-09-12T04:21:50;7.43;;;2.97;;
20689;SDS011;10504;48.762;8.996;2022-09-12T04:24:15;7.53;;;2.77;;
20689;SDS011;10504;48.762;8.996;2022-09-12T04:26:41;6.87;;;2.80;;
20689;SDS011;10504;48.762;8.996;2022-09-12T04:29:08;5.87;;;2.50;;
20689;SDS011;10504;48.762;8.996;2022-09-12T04:31:39;6.83;;;2.10;;
20689;SDS011;10504;48.762;8.996;2022-09-12T04:34:05;6.63;;;2.60;;
20689;SDS011;10504;48.762;8.996;2022-09-12T04:36:30;4.57;;;2.07;;
20689;SDS011;10504;48.762;8.996;2022-09-12T04:38:58;6.53;;;2.43;;
20689;SDS011;10504;48.762;8.996;2022-09-12T04:41:28;7.83;;;3.13;;
20689;SDS011;10504;48.762;8.996;2022-09-12T04:43:57;6.53;;;2.63;;
20689;SDS011;10504;48.762;8.996;2022-09-12T04:46:27;7.97;;;2.73;;
20689;SDS011;10504;48.762;8.996;2022-09-12T04:48:54;8.07;;;3.20;;
20689;SDS011;10504;48.762;8.996;2022-09-12T04:51:21;6.60;;;2.60;;
20689;SDS011;10504;48.762;8.996;2022-09-12T04:53:52;9.63;;;3.20;;
20689;SDS011;10504;48.762;8.996;2022-09-12T04:56:20;7.03;;;1.97;;
20689;SDS011;10504;48.762;8.996;2022-09-12T04:58:46;8.23;;;2.83;;
20689;SDS011;10504;48.762;8.996;2022-09-12T05:01:16;7.33;;;2.47;;
20689;SDS011;10504;48.762;8.996;2022-09-12T05:03:43;9.40;;;3.87;;
20689;SDS011;10504;48.762;8.996;2022-09-12T05:06:19;8.33;;;2.97;;
20689;SDS011;10504;48.762;8.996;2022-09-12T05:08:48;6.93;;;2.73;;
20689;SDS011;10504;48.762;8.996;2022-09-12T05:11:24;8.33;;;2.80;;
20689;SDS011;10504;48.762;8.996;2022-09-12T05:13:51;7.90;;;3.53;;
20689;SDS011;10504;48.762;8.996;2022-09-12T05:16:17;6.80;;;2.10;;
20689;SDS011;10504;48.762;8.996;2022-09-12T05:18:44;9.83;;;3.10;;
20689;SDS011;10504;48.762;8.996;2022-09-12T05:21:11;5.57;;;2.37;;
20689;SDS011;10504;48.762;8.996;2022-09-12T05:23:39;8.30;;;3.13;;
20689;SDS011;10504;48.762;8.996;2022-09-12T05:26:05;8.03;;;2.90;;
20689;SDS011;10504;48.762;8.996;2022-09-12T05:28:33;7.03;;;2.63;;
20689;SDS011;10504;48.762;8.996;2022-09-12T05:31:01;8.63;;;3.17;;
20689;SDS011;10504;48.762;8.996;2022-09-12T05:33:29;5.83;;;2.43;;
20689;SDS011;10504;48.762;8.996;2022-09-12T05:35:56;8.80;;;2.67;;
20689;SDS011;10504;48.762;8.996;2022-09-12T05:38:22;7.50;;;3.07;;
20689;SDS011;10504;48.762;8.996;2022-09-12T05:40:52;5.87;;;2.27;;
20689;SDS011;10504;48.762;8.996;2022-09-12T05:43:18;8.00;;;3.30;;
20689;SDS011;10504;48.762;8.996;2022-09-12T05:45:44;6.57;;;3.33;;
20689;SDS011;10504;48.762;8.996;2022-09-12T05:48:10;7.83;;;3.00;;
20689;SDS011;10504;48.762;8.996;2022-09-12T05:50:35;9.33;;;4.07;;
20689;SDS011;10504;48.762;8.996;2022-09-12T05:53:01;6.77;;;2.50;;
20689;SDS011;10504;48.762;8.996;2022-09-12T05:55:27;7.20;;;2.80;;
20689;SDS011;10504;48.762;8.996;2022-09-12T05:57:53;5.30;;;2.10;;
20689;SDS011;10504;48.762;8.996;2022-09-12T06:00:19;6.60;;;2.83;;
20689;SDS011;10504;48.762;8.996;2022-09-12T06:02:49;6.80;;;2.30;;
20689;SDS011;10504;48.762;8.996;2022-09-12T06:05:17;6.77;;;2.53;;
20689;SDS011;10504;48.762;8.996;2022-09-12T06:07:44;8.57;;;3.00;;
20689;SDS011;10504;48.762;8.996;2022-09-12T06:10:11;7.37;;;2.83;;
20689;SDS011;10504;48.762;8.996;2022-09-12T06:12:37;11.77;;;3.90;;
20689;SDS011;10504;48.762;8.996;2022-09-12T06:15:03;8.50;;;3.17;;
20689;SDS011;10504;48.762;8.996;2022-09-12T06:17:29;9.03;;;2.70;;
20689;SDS011;10504;48.762;8.996;2022-09-12T06:19:55;7.00;;;3.23;;
20689;SDS011;10504;48.762;8.996;2022-09-12T06:22:20;8.80;;;3.27;;
20689;SDS011;10504;48.762;8.996;2022-09-12T06:24:46;7.87;;;2.60;;
20689;SDS011;10504;48.762;8.996;2022-09-12T06:27:12;5.50;;;2.33;;
20689;SDS011;10504;48.762;8.996;2022-09-12T06:29:37;10.57;;;4.07;;
20689;SDS011;10504;48.762;8.996;2022-09-12T06:32:03;9.43;;;3.37;;
20689;SDS011;10504;48.762;8.996;2022-09-12T06:34:29;7.33;;;2.90;;
20689;SDS011;10504;48.762;8.996;2022-09-12T06:36:54;9.03;;;3.63;;
20689;SDS011;10504;48.762;8.996;2022-09-12T06:39:21;8.27;;;2.87;;
20689;SDS011;10504;48.762;8.996;2022-09-12T06:41:50;8.37;;;3.47;;
20689;SDS011;10504;48.762;8.996;2022-09-12T06:44:17;7.00;;;2.83;;
20689;SDS011;10504;48.762;8.996;2022-09-12T06:46:44;6.80;;;2.40;;
20689;SDS011;10504;48.762;8.996;2022-09-12T06:49:11;10.63;;;3.83;;
20689;SDS011;10504;48.762;8.996;2022-09-12T06:51:37;9.67;;;3.10;;
20689;SDS011;10504;48.762;8.996;2022-09-12T06:54:03;8.10;;;3.07;;
20689;SDS011;10504;48.762;8.996;2022-09-12T06:56:29;5.27;;;2.10;;
20689;SDS011;10504;48.762;8.996;2022-09-12T06:58:56;8.57;;;3.00;;
20689;SDS011;10504;48.762;8.996;2022-09-12T07:01:26;6.37;;;2.50;;
20689;SDS011;10504;48.762;8.996;2022-09-12T07:03:57;7.63;;;2.80;;
20689;SDS011;10504;48.762;8.996;2022-09-12T07:06:28;9.50;;;2.67;;
20689;SDS011;10504;48.762;8.996;2022-09-12T07:08:58;5.83;;;2.33;;
20689;SDS011;10504;48.762;8.996;2022-09-12T07:11:26;7.20;;;2.30;;
20689;SDS011;10504;48.762;8.996;2022-09-12T07:13:54;7.70;;;2.60;;
20689;SDS011;10504;48.762;8.996;2022-09-12T07:16:22;8.83;;;2.30;;
20689;SDS011;10504;48.762;8.996;2022-09-12T07:18:51;5.73;;;2.33;;
20689;SDS011;10504;48.762;8.996;2022-09-12T07:21:19;7.07;;;2.33;;
20689;SDS011;10504;48.762;8.996;2022-09-12T07:23:45;5.30;;;2.30;;
20689;SDS011;10504;48.762;8.996;2022-09-12T07:26:12;6.57;;;2.50;;
20689;SDS011;10504;48.762;8.996;2022-09-12T07:28:38;5.47;;;2.77;;
20689;SDS011;10504;48.762;8.996;2022-09-12T07:31:11;8.90;;;2.83;;
20689;SDS011;10504;48.762;8.996;2022-09-12T07:33:39;8.50;;;3.07;;
20689;SDS011;10504;48.762;8.996;2022-09-12T07:36:06;7.93;;;2.80;;
20689;SDS011;10504;48.762;8.996;2022-09-12T07:38:35;7.20;;;2.30;;
20689;SDS011;10504;48.762;8.996;2022-09-12T07:41:08;6.27;;;2.53;;
20689;SDS011;10504;48.762;8.996;2022-09-12T07:43:35;7.43;;;2.37;;
20689;SDS011;10504;48.762;8.996;2022-09-12T07:46:01;5.07;;;2.20;;
20689;SDS011;10504;48.762;8.996;2022-09-12T07:48:26;5.30;;;2.60;;
20689;SDS011;10504;48.762;8.996;2022-09-12T07:50:59;5.23;;;2.20;;
20689;SDS011;10504;48.762;8.996;2022-09-12T07:53:29;5.03;;;2.10;;
20689;SDS011;10504;48.762;8.996;2022-09-12T07:55:57;5.13;;;2.00;;
20689;SDS011;10504;48.762;8.996;2022-09-12T07:58:22;3.27;;;1.77;;
20689;SDS011;10504;48.762;8.996;2022-09-12T08:00:48;5.13;;;1.97;;
20689;SDS011;10504;48.762;8.996;2022-09-12T08:03:14;5.73;;;2.53;;
20689;SDS011;10504;48.762;8.996;2022-09-12T08:05:40;4.53;;;1.77;;
20689;SDS011;10504;48.762;8.996;2022-09-12T08:08:05;4.40;;;1.70;;
20689;SDS011;10504;48.762;8.996;2022-09-12T08:10:31;3.77;;;1.70;;
20689;SDS011;10504;48.762;8.996;2022-09-12T08:12:57;6.17;;;1.90;;
20689;SDS011;10504;48.762;8.996;2022-09-12T08:15:23;4.10;;;1.17;;
20689;SDS011;10504;48.762;8.996;2022-09-12T08:17:49;4.20;;;1.50;;
20689;SDS011;10504;48.762;8.996;2022-09-12T08:20:14;4.80;;;1.37;;
20689;SDS011;10504;48.762;8.996;2022-09-12T08:22:41;2.37;;;1.23;;
20689;SDS011;10504;48.762;8.996;2022-09-12T08:25:07;4.90;;;2.13;;
20689;SDS011;10504;48.762;8.996;2022-09-12T08:27:33;4.33;;;1.90;;
20689;SDS011;10504;48.762;8.996;2022-09-12T08:29:59;3.13;;;1.43;;
20689;SDS011;10504;48.762;8.996;2022-09-12T08:32:24;2.43;;;1.07;;
20689;SDS011;10504;48.762;8.996;2022-09-12T08:34:50;3.07;;;1.27;;
20689;SDS011;10504;48.762;8.996;2022-09-12T08:37:16;4.47;;;1.97;;
20689;SDS011;10504;48.762;8.996;2022-09-12T08:39:41;2.20;;;1.23;;
20689;SDS011;10504;48.762;8.996;2022-09-12T08:42:08;2.77;;;1.00;;
20689;SDS011;10504;48.762;8.996;2022-09-12T08:52:32;3.70;;;1.50;;
20689;SDS011;10504;48.762;8.996;2022-09-12T08:55:22;2.00;;;1.23;;
20689;SDS011;10504;48.762;8.996;2022-09-12T08:57:57;1.70;;;1.20;;
20689;SDS011;10504;48.762;8.996;2022-09-12T09:00:33;1.30;;;0.90;;
20689;SDS011;10504;48.762;8.996;2022-09-12T09:03:08;2.67;;;1.23;;
20689;SDS011;10504;48.762;8.996;2022-09-12T09:08:26;2.40;;;1.33;;
20689;SDS011;10504;48.762;8.996;2022-09-12T09:11:04;1.37;;;1.00;;
20689;SDS011;10504;48.762;8.996;2022-09-12T09:16:45;2.77;;;1.40;;
20689;SDS011;10504;48.762;8.996;2022-09-12T09:19:18;2.03;;;1.03;;
20689;SDS011;10504;48.762;8.996;2022-09-12T09:24:17;5.40;;;2.20;;
20689;SDS011;10504;48.762;8.996;2022-09-12T09:26:57;3.70;;;1.13;;
20689;SDS011;10504;48.762;8.996;2022-09-12T09:29:29;2.10;;;1.07;;
20689;SDS011;10504;48.762;8.996;2022-09-12T09:32:02;2.77;;;1.33;;
20689;SDS011;10504;48.762;8.996;2022-09-12T09:34:34;2.13;;;1.20;;
20689;SDS011;10504;48.762;8.996;2022-09-12T09:37:18;6.43;;;1.60;;
20689;SDS011;10504;48.762;8.996;2022-09-12T09:42:59;2.70;;;1.13;;
20689;SDS011;10504;48.762;8.996;2022-09-12T09:45:37;1.90;;;1.00;;
20689;SDS011;10504;48.762;8.996;2022-09-12T09:50:36;1.90;;;0.90;;
20689;SDS011;10504;48.762;8.996;2022-09-12T09:53:02;1.90;;;1.00;;
20689;SDS011;10504;48.762;8.996;2022-09-12T09:55:37;3.30;;;1.17;;
20689;SDS011;10504;48.762;8.996;2022-09-12T09:58:06;3.87;;;1.60;;
20689;SDS011;10504;48.762;8.996;2022-09-12T10:00:33;2.80;;;1.20;;
20689;SDS011;10504;48.762;8.996;2022-09-12T10:03:03;1.20;;;0.80;;
20689;SDS011;10504;48.762;8.996;2022-09-12T10:05:34;3.07;;;1.20;;
20689;SDS011;10504;48.762;8.996;2022-09-12T10:08:18;3.70;;;1.60;;
20689;SDS011;10504;48.762;8.996;2022-09-12T10:10:52;2.50;;;1.10;;
20689;SDS011;10504;48.762;8.996;2022-09-12T10:13:24;1.73;;;0.87;;
20689;SDS011;10504;48.762;8.996;2022-09-12T10:16:02;1.93;;;1.20;;
20689;SDS011;10504;48.762;8.996;2022-09-12T10:18:52;2.10;;;1.00;;
20689;SDS011;10504;48.762;8.996;2022-09-12T10:24:17;4.27;;;1.50;;
20689;SDS011;10504;48.762;8.996;2022-09-12T10:26:57;1.63;;;0.93;;
20689;SDS011;10504;48.762;8.996;2022-09-12T10:29:33;1.47;;;0.70;;
20689;SDS011;10504;48.762;8.996;2022-09-12T10:32:08;2.00;;;0.90;;
20689;SDS011;10504;48.762;8.996;2022-09-12T10:34:37;1.63;;;0.70;;
20689;SDS011;10504;48.762;8.996;2022-09-12T10:37:07;0.57;;;0.53;;
20689;SDS011;10504;48.762;8.996;2022-09-12T10:39:39;2.10;;;0.87;;
20689;SDS011;10504;48.762;8.996;2022-09-12T10:42:13;1.27;;;0.80;;
20689;SDS011;10504;48.762;8.996;2022-09-12T10:44:39;3.30;;;1.20;;
20689;SDS011;10504;48.762;8.996;2022-09-12T10:47:19;2.43;;;0.90;;
20689;SDS011;10504;48.762;8.996;2022-09-12T10:49:48;0.93;;;0.80;;
20689;SDS011;10504;48.762;8.996;2022-09-12T10:54:48;1.73;;;0.67;;
20689;SDS011;10504;48.762;8.996;2022-09-12T10:57:24;1.23;;;0.83;;
20689;SDS011;10504;48.762;8.996;2022-09-12T11:00:12;1.00;;;0.70;;
20689;SDS011;10504;48.762;8.996;2022-09-12T11:11:07;1.00;;;0.70;;
20689;SDS011;10504;48.762;8.996;2022-09-12T11:27:36;0.77;;;0.63;;
20689;SDS011;10504;48.762;8.996;2022-09-12T11:30:20;1.70;;;1.07;;
20689;SDS011;10504;48.762;8.996;2022-09-12T11:35:29;0.93;;;0.70;;
20689;SDS011;10504;48.762;8.996;2022-09-12T11:38:34;0.57;;;0.57;;
20689;SDS011;10504;48.762;8.996;2022-09-12T11:46:21;1.03;;;0.63;;
20689;SDS011;10504;48.762;8.996;2022-09-12T11:57:23;0.83;;;0.50;;
20689;SDS011;10504;48.762;8.996;2022-09-12T12:02:47;0.43;;;0.40;;
20689;SDS011;10504;48.762;8.996;2022-09-12T12:08:05;1.40;;;0.50;;
20689;SDS011;10504;48.762;8.996;2022-09-12T12:13:02;0.77;;;0.50;;
20689;SDS011;10504;48.762;8.996;2022-09-12T12:15:32;1.07;;;0.60;;
20689;SDS011;10504;48.762;8.996;2022-09-12T12:18:04;0.77;;;0.60;;
20689;SDS011;10504;48.762;8.996;2022-09-12T12:20:32;0.40;;;0.40;;
20689;SDS011;10504;48.762;8.996;2022-09-12T12:22:59;0.40;;;0.40;;
20689;SDS011;10504;48.762;8.996;2022-09-12T12:25:36;0.50;;;0.50;;
20689;SDS011;10504;48.762;8.996;2022-09-12T12:28:32;0.40;;;0.40;;
20689;SDS011;10504;48.762;8.996;2022-09-12T12:31:07;0.80;;;0.43;;
20689;SDS011;10504;48.762;8.996;2022-09-12T12:36:09;0.40;;;0.40;;
20689;SDS011;10504;48.762;8.996;2022-09-12T12:38:57;0.87;;;0.60;;
20689;SDS011;10504;48.762;8.996;2022-09-12T12:46:19;0.67;;;0.40;;
20689;SDS011;10504;48.762;8.996;2022-09-12T12:54:05;14.93;;;1.13;;
20689;SDS011;10504;48.762;8.996;2022-09-12T12:59:43;1.00;;;0.60;;
20689;SDS011;10504;48.762;8.996;2022-09-12T13:02:19;1.03;;;0.50;;
20689;SDS011;10504;48.762;8.996;2022-09-12T13:04:50;0.50;;;0.50;;
20689;SDS011;10504;48.762;8.996;2022-09-12T13:07:21;0.50;;;0.50;;
20689;SDS011;10504;48.762;8.996;2022-09-12T13:09:53;1.27;;;0.53;;
20689;SDS011;10504;48.762;8.996;2022-09-12T13:14:52;0.40;;;0.40;;
20689;SDS011;10504;48.762;8.996;2022-09-12T13:22:47;0.30;;;0.30;;
20689;SDS011;10504;48.762;8.996;2022-09-12T13:25:30;0.40;;;0.40;;
20689;SDS011;10504;48.762;8.996;2022-09-12T13:27:56;1.17;;;0.50;;
20689;SDS011;10504;48.762;8.996;2022-09-12T13:30:22;0.43;;;0.40;;
20689;SDS011;10504;48.762;8.996;2022-09-12T13:32:48;0.40;;;0.30;;
20689;SDS011;10504;48.762;8.996;2022-09-12T13:40:48;0.43;;;0.43;;
20689;SDS011;10504;48.762;8.996;2022-09-12T13:43:35;0.67;;;0.43;;
20689;SDS011;10504;48.762;8.996;2022-09-12T13:46:06;0.83;;;0.30;;
20689;SDS011;10504;48.762;8.996;2022-09-12T13:48:33;0.47;;;0.33;;
20689;SDS011;10504;48.762;8.996;2022-09-12T13:50:59;0.30;;;0.30;;
20689;SDS011;10504;48.762;8.996;2022-09-12T13:53:28;14.43;;;0.87;;
20689;SDS011;10504;48.762;8.996;2022-09-12T13:56:04;0.40;;;0.40;;
20689;SDS011;10504;48.762;8.996;2022-09-12T13:58:31;0.50;;;0.50;;
20689;SDS011;10504;48.762;8.996;2022-09-12T14:01:16;1.03;;;0.43;;
20689;SDS011;10504;48.762;8.996;2022-09-12T14:03:47;0.70;;;0.63;;
20689;SDS011;10504;48.762;8.996;2022-09-12T14:06:45;0.40;;;0.40;;
20689;SDS011;10504;48.762;8.996;2022-09-12T14:09:15;0.20;;;0.20;;
20689;SDS011;10504;48.762;8.996;2022-09-12T14:11:47;0.30;;;0.30;;
20689;SDS011;10504;48.762;8.996;2022-09-12T14:16:58;0.40;;;0.40;;
20689;SDS011;10504;48.762;8.996;2022-09-12T14:19:24;0.30;;;0.30;;
20689;SDS011;10504;48.762;8.996;2022-09-12T14:21:54;0.37;;;0.37;;
20689;SDS011;10504;48.762;8.996;2022-09-12T14:24:21;0.83;;;0.40;;
20689;SDS011;10504;48.762;8.996;2022-09-12T14:26:48;1.03;;;0.60;;
20689;SDS011;10504;48.762;8.996;2022-09-12T14:29:18;1.90;;;0.60;;
20689;SDS011;10504;48.762;8.996;2022-09-12T14:31:46;0.33;;;0.33;;
20689;SDS011;10504;48.762;8.996;2022-09-12T14:34:25;2.10;;;0.97;;
20689;SDS011;10504;48.762;8.996;2022-09-12T14:36:51;1.70;;;0.77;;
20689;SDS011;10504;48.762;8.996;2022-09-12T14:39:33;0.50;;;0.50;;
20689;SDS011;10504;48.762;8.996;2022-09-12T14:42:25;0.47;;;0.30;;
20689;SDS011;10504;48.762;8.996;2022-09-12T14:45:02;0.40;;;0.33;;
20689;SDS011;10504;48.762;8.996;2022-09-12T14:47:38;0.63;;;0.47;;
20689;SDS011;10504;48.762;8.996;2022-09-12T14:50:16;0.53;;;0.40;;
20689;SDS011;10504;48.762;8.996;2022-09-12T14:52:44;1.23;;;0.87;;
20689;SDS011;10504;48.762;8.996;2022-09-12T14:58:06;0.57;;;0.50;;
20689;SDS011;10504;48.762;8.996;2022-09-12T15:00:37;0.53;;;0.30;;
20689;SDS011;10504;48.762;8.996;2022-09-12T15:03:24;1.20;;;0.57;;
20689;SDS011;10504;48.762;8.996;2022-09-12T15:05:52;0.20;;;0.20;;
20689;SDS011;10504;48.762;8.996;2022-09-12T15:08:18;0.63;;;0.50;;
20689;SDS011;10504;48.762;8.996;2022-09-12T15:10:44;1.13;;;0.60;;
20689;SDS011;10504;48.762;8.996;2022-09-12T15:15:38;0.53;;;0.50;;
20689;SDS011;10504;48.762;8.996;2022-09-12T15:18:06;0.67;;;0.30;;
20689;SDS011;10504;48.762;8.996;2022-09-12T15:20:33;1.00;;;0.70;;
20689;SDS011;10504;48.762;8.996;2022-09-12T15:23:01;0.83;;;0.50;;
20689;SDS011;10504;48.762;8.996;2022-09-12T15:25:26;0.67;;;0.60;;
20689;SDS011;10504;48.762;8.996;2022-09-12T15:27:52;0.47;;;0.30;;
20689;SDS011;10504;48.762;8.996;2022-09-12T15:30:19;0.83;;;0.30;;
20689;SDS011;10504;48.762;8.996;2022-09-12T15:32:45;0.30;;;0.27;;
20689;SDS011;10504;48.762;8.996;2022-09-12T15:35:18;1.27;;;0.50;;
20689;SDS011;10504;48.762;8.996;2022-09-12T15:37:46;0.30;;;0.20;;
20689;SDS011;10504;48.762;8.996;2022-09-12T15:40:13;0.90;;;0.57;;
20689;SDS011;10504;48.762;8.996;2022-09-12T15:42:39;0.33;;;0.20;;
20689;SDS011;10504;48.762;8.996;2022-09-12T15:45:48;0.30;;;0.30;;
20689;SDS011;10504;48.762;8.996;2022-09-12T15:47:56;0.50;;;0.40;;
20689;SDS011;10504;48.762;8.996;2022-09-12T15:50:22;0.77;;;0.50;;
20689;SDS011;10504;48.762;8.996;2022-09-12T15:52:48;0.30;;;0.30;;
20689;SDS011;10504;48.762;8.996;2022-09-12T15:55:19;0.30;;;0.30;;
20689;SDS011;10504;48.762;8.996;2022-09-12T15:57:49;0.33;;;0.33;;
20689;SDS011;10504;48.762;8.996;2022-09-12T16:00:15;0.23;;;0.23;;
20689;SDS011;10504;48.762;8.996;2022-09-12T16:02:42;0.30;;;0.30;;
20689;SDS011;10504;48.762;8.996;2022-09-12T16:05:13;0.40;;;0.40;;
20689;SDS011;10504;48.762;8.996;2022-09-12T16:07:41;0.20;;;0.20;;
20689;SDS011;10504;48.762;8.996;2022-09-12T16:10:12;0.23;;;0.23;;
20689;SDS011;10504;48.762;8.996;2022-09-12T16:12:42;0.40;;;0.30;;
20689;SDS011;10504;48.762;8.996;2022-09-12T16:15:13;0.53;;;0.50;;
20689;SDS011;10504;48.762;8.996;2022-09-12T16:17:43;2.43;;;0.40;;
20689;SDS011;10504;48.762;8.996;2022-09-12T16:20:09;0.40;;;0.40;;
20689;SDS011;10504;48.762;8.996;2022-09-12T16:22:35;0.60;;;0.60;;
20689;SDS011;10504;48.762;8.996;2022-09-12T16:25:01;0.30;;;0.30;;
20689;SDS011;10504;48.762;8.996;2022-09-12T16:27:27;0.50;;;0.50;;
20689;SDS011;10504;48.762;8.996;2022-09-12T16:29:53;0.50;;;0.40;;
20689;SDS011;10504;48.762;8.996;2022-09-12T16:32:18;1.23;;;0.53;;
20689;SDS011;10504;48.762;8.996;2022-09-12T16:34:44;0.57;;;0.50;;
20689;SDS011;10504;48.762;8.996;2022-09-12T16:37:10;0.50;;;0.50;;
20689;SDS011;10504;48.762;8.996;2022-09-12T16:39:35;0.90;;;0.40;;
20689;SDS011;10504;48.762;8.996;2022-09-12T16:42:01;0.50;;;0.47;;
20689;SDS011;10504;48.762;8.996;2022-09-12T16:44:27;0.93;;;0.63;;
20689;SDS011;10504;48.762;8.996;2022-09-12T16:46:52;1.33;;;0.50;;
20689;SDS011;10504;48.762;8.996;2022-09-12T16:49:18;0.83;;;0.50;;
20689;SDS011;10504;48.762;8.996;2022-09-12T16:51:43;0.30;;;0.30;;
20689;SDS011;10504;48.762;8.996;2022-09-12T16:54:12;0.40;;;0.40;;
20689;SDS011;10504;48.762;8.996;2022-09-12T16:56:38;0.40;;;0.40;;
20689;SDS011;10504;48.762;8.996;2022-09-12T16:59:04;0.53;;;0.40;;
20689;SDS011;10504;48.762;8.996;2022-09-12T17:01:30;0.50;;;0.50;;
20689;SDS011;10504;48.762;8.996;2022-09-12T17:03:58;0.60;;;0.60;;
20689;SDS011;10504;48.762;8.996;2022-09-12T17:06:25;0.40;;;0.40;;
20689;SDS011;10504;48.762;8.996;2022-09-12T17:08:52;2.20;;;0.70;;
20689;SDS011;10504;48.762;8.996;2022-09-12T17:11:23;4.83;;;2.27;;
20689;SDS011;10504;48.762;8.996;2022-09-12T17:13:54;5.27;;;1.57;;
20689;SDS011;10504;48.762;8.996;2022-09-12T17:16:21;4.63;;;2.10;;
20689;SDS011;10504;48.762;8.996;2022-09-12T17:18:48;2.50;;;0.80;;
20689;SDS011;10504;48.762;8.996;2022-09-12T17:21:15;0.87;;;0.50;;
20689;SDS011;10504;48.762;8.996;2022-09-12T17:23:40;0.77;;;0.47;;
20689;SDS011;10504;48.762;8.996;2022-09-12T17:26:07;0.57;;;0.57;;
20689;SDS011;10504;48.762;8.996;2022-09-12T17:28:34;0.57;;;0.57;;
20689;SDS011;10504;48.762;8.996;2022-09-12T17:31:01;0.60;;;0.50;;
20689;SDS011;10504;48.762;8.996;2022-09-12T17:33:29;0.77;;;0.60;;
20689;SDS011;10504;48.762;8.996;2022-09-12T17:35:58;0.77;;;0.53;;
20689;SDS011;10504;48.762;8.996;2022-09-12T17:38:30;1.43;;;0.50;;